Stewart International Airport Newburgh US
ICAO: KSWF
IATA: SWF
Category: Medium
Scheduled Services: Yes

Elevation: 491 ft
TransAlt. 18000 ft.

Airport Communications:
105 AW COMD POST:37.94
ATIS:124.575
NEW YORK CNTR:132.75
GND:121.9
AR OPS:38.5
ARMY OPS:49.75
TWR:121
UNICOM:122.95

KSWF Zoom In..

Runways:

(A) RW 09 length 11817 ft width 150 ft
ILS 110.10 / hdg 92

(B) RW 16 length 6004 ft width 150 ft
---- / hdg 163

(C) RW 27 length 11817 ft width 150 ft
ILS 109.95 / hdg 272

(D) RW 34 length 6004 ft width 150 ft
---- / hdg 343

Location; KSWF
Day. 08 / Time. 04.45 Zulu
* Altimeter: 29.63
* Temperature: 12° c. 53.6°f.
* Wind from: VRB° Speed 04 kn.
Dewpoint: 02° c.
Visibility: 10 Statute Miles.
Clouds: Overcast 6000 ft.

KSWF 080445Z VRB04KT 10SM OVC060 12/02 A2963


Wind From VRB°
Speed 04 kn.

 
 
jpsmedia worldairports.se 2020   terms of use